sensor_id;sensor_type;location;lat;lon;timestamp;P1;durP1;ratioP1;P2;durP2;ratioP2
6862;SDS011;3470;48.738;9.616;2022-09-09T17:36:30;2.88;;;1.05;;
6862;SDS011;3470;48.738;9.616;2022-09-09T17:38:58;1.52;;;0.93;;
6862;SDS011;3470;48.738;9.616;2022-09-09T17:41:26;1.10;;;0.85;;
6862;SDS011;3470;48.738;9.616;2022-09-09T18:59:59;1.03;;;0.70;;
6862;SDS011;3470;48.738;9.616;2022-09-09T19:02:25;1.93;;;0.60;;
6862;SDS011;3470;48.738;9.616;2022-09-09T19:04:51;0.90;;;0.70;;
6862;SDS011;3470;48.738;9.616;2022-09-09T19:07:17;1.15;;;0.82;;
6862;SDS011;3470;48.738;9.616;2022-09-09T19:09:43;1.85;;;0.68;;
6862;SDS011;3470;48.738;9.616;2022-09-09T19:12:09;1.30;;;0.88;;
6862;SDS011;3470;48.738;9.616;2022-09-09T19:14:35;2.58;;;1.00;;
6862;SDS011;3470;48.738;9.616;2022-09-09T19:17:02;1.00;;;0.75;;
6862;SDS011;3470;48.738;9.616;2022-09-09T19:19:29;1.40;;;0.73;;
6862;SDS011;3470;48.738;9.616;2022-09-09T19:21:56;1.25;;;0.82;;
6862;SDS011;3470;48.738;9.616;2022-09-09T19:24:23;1.17;;;0.93;;
6862;SDS011;3470;48.738;9.616;2022-09-09T19:26:52;1.27;;;0.80;;
6862;SDS011;3470;48.738;9.616;2022-09-09T19:29:22;0.90;;;0.80;;
6862;SDS011;3470;48.738;9.616;2022-09-09T19:31:50;1.30;;;0.82;;
6862;SDS011;3470;48.738;9.616;2022-09-09T19:34:17;2.20;;;0.95;;
6862;SDS011;3470;48.738;9.616;2022-09-09T19:36:44;1.83;;;0.90;;
6862;SDS011;3470;48.738;9.616;2022-09-09T19:39:11;1.58;;;0.82;;
6862;SDS011;3470;48.738;9.616;2022-09-09T19:41:37;1.73;;;1.02;;
6862;SDS011;3470;48.738;9.616;2022-09-09T19:44:04;2.05;;;1.35;;
6862;SDS011;3470;48.738;9.616;2022-09-09T19:46:32;2.10;;;1.30;;
6862;SDS011;3470;48.738;9.616;2022-09-09T19:49:02;3.00;;;1.38;;
6862;SDS011;3470;48.738;9.616;2022-09-09T19:51:29;1.20;;;1.00;;
6862;SDS011;3470;48.738;9.616;2022-09-09T19:53:56;1.95;;;1.10;;
6862;SDS011;3470;48.738;9.616;2022-09-09T19:56:27;1.63;;;1.02;;
6862;SDS011;3470;48.738;9.616;2022-09-09T19:58:54;3.70;;;1.20;;
6862;SDS011;3470;48.738;9.616;2022-09-09T20:01:22;1.25;;;0.90;;
6862;SDS011;3470;48.738;9.616;2022-09-09T20:03:50;2.07;;;0.90;;
6862;SDS011;3470;48.738;9.616;2022-09-09T20:06:19;4.40;;;1.10;;
6862;SDS011;3470;48.738;9.616;2022-09-09T20:08:47;1.63;;;1.10;;
6862;SDS011;3470;48.738;9.616;2022-09-09T20:11:14;2.30;;;1.10;;
6862;SDS011;3470;48.738;9.616;2022-09-09T20:13:40;1.20;;;0.90;;
6862;SDS011;3470;48.738;9.616;2022-09-09T20:16:07;2.33;;;1.30;;
6862;SDS011;3470;48.738;9.616;2022-09-09T20:18:36;3.08;;;1.10;;
6862;SDS011;3470;48.738;9.616;2022-09-09T20:21:04;2.42;;;1.10;;
6862;SDS011;3470;48.738;9.616;2022-09-09T20:23:35;2.70;;;1.05;;
6862;SDS011;3470;48.738;9.616;2022-09-09T20:26:07;1.03;;;1.00;;
6862;SDS011;3470;48.738;9.616;2022-09-09T20:28:38;3.03;;;1.10;;
6862;SDS011;3470;48.738;9.616;2022-09-09T20:31:07;1.57;;;1.00;;
6862;SDS011;3470;48.738;9.616;2022-09-09T20:33:35;2.33;;;1.00;;
6862;SDS011;3470;48.738;9.616;2022-09-09T20:36:08;3.10;;;1.10;;
6862;SDS011;3470;48.738;9.616;2022-09-09T20:38:45;2.70;;;1.60;;
6862;SDS011;3470;48.738;9.616;2022-09-09T20:41:17;2.93;;;1.07;;
6862;SDS011;3470;48.738;9.616;2022-09-09T20:43:51;1.20;;;1.00;;
6862;SDS011;3470;48.738;9.616;2022-09-09T20:46:19;3.13;;;1.10;;
6862;SDS011;3470;48.738;9.616;2022-09-09T20:48:48;2.30;;;1.23;;
6862;SDS011;3470;48.738;9.616;2022-09-09T20:51:20;3.40;;;0.93;;
6862;SDS011;3470;48.738;9.616;2022-09-09T20:53:47;2.90;;;1.53;;
6862;SDS011;3470;48.738;9.616;2022-09-09T20:56:22;1.47;;;1.20;;
6862;SDS011;3470;48.738;9.616;2022-09-09T20:58:48;1.83;;;1.07;;
6862;SDS011;3470;48.738;9.616;2022-09-09T21:01:14;2.37;;;1.00;;
6862;SDS011;3470;48.738;9.616;2022-09-09T21:03:42;4.47;;;1.40;;
6862;SDS011;3470;48.738;9.616;2022-09-09T21:06:08;1.63;;;1.13;;
6862;SDS011;3470;48.738;9.616;2022-09-09T21:08:35;2.87;;;1.10;;
6862;SDS011;3470;48.738;9.616;2022-09-09T21:11:01;1.77;;;1.00;;
6862;SDS011;3470;48.738;9.616;2022-09-09T21:13:28;3.07;;;0.97;;
6862;SDS011;3470;48.738;9.616;2022-09-09T21:15:57;4.83;;;1.20;;
6862;SDS011;3470;48.738;9.616;2022-09-09T21:18:23;2.63;;;1.30;;
6862;SDS011;3470;48.738;9.616;2022-09-09T21:20:49;2.80;;;1.30;;
6862;SDS011;3470;48.738;9.616;2022-09-09T21:23:17;2.10;;;1.10;;
6862;SDS011;3470;48.738;9.616;2022-09-09T21:25:42;1.90;;;1.00;;
6862;SDS011;3470;48.738;9.616;2022-09-09T21:28:09;2.60;;;1.10;;
6862;SDS011;3470;48.738;9.616;2022-09-09T21:30:36;2.40;;;1.07;;
6862;SDS011;3470;48.738;9.616;2022-09-09T21:33:05;1.97;;;1.10;;
6862;SDS011;3470;48.738;9.616;2022-09-09T21:35:34;5.75;;;1.38;;
6862;SDS011;3470;48.738;9.616;2022-09-09T21:38:07;1.87;;;1.20;;
6862;SDS011;3470;48.738;9.616;2022-09-09T21:40:41;2.63;;;1.30;;
6862;SDS011;3470;48.738;9.616;2022-09-09T21:43:08;2.07;;;1.00;;
6862;SDS011;3470;48.738;9.616;2022-09-09T21:45:37;1.40;;;1.10;;
6862;SDS011;3470;48.738;9.616;2022-09-09T21:48:04;1.90;;;1.10;;
6862;SDS011;3470;48.738;9.616;2022-09-09T21:50:38;1.80;;;1.30;;
6862;SDS011;3470;48.738;9.616;2022-09-09T21:53:04;1.90;;;1.20;;
6862;SDS011;3470;48.738;9.616;2022-09-09T21:55:35;1.87;;;1.13;;
6862;SDS011;3470;48.738;9.616;2022-09-09T21:58:02;2.47;;;1.20;;
6862;SDS011;3470;48.738;9.616;2022-09-09T22:00:29;1.47;;;1.33;;
6862;SDS011;3470;48.738;9.616;2022-09-09T22:02:55;5.00;;;1.40;;
6862;SDS011;3470;48.738;9.616;2022-09-09T22:05:20;2.07;;;1.23;;
6862;SDS011;3470;48.738;9.616;2022-09-09T22:07:46;2.73;;;1.37;;
6862;SDS011;3470;48.738;9.616;2022-09-09T22:10:11;2.47;;;1.40;;
6862;SDS011;3470;48.738;9.616;2022-09-09T22:12:37;1.40;;;1.20;;
6862;SDS011;3470;48.738;9.616;2022-09-09T22:15:03;3.23;;;1.30;;
6862;SDS011;3470;48.738;9.616;2022-09-09T22:17:31;1.60;;;1.30;;
6862;SDS011;3470;48.738;9.616;2022-09-09T22:19:58;1.60;;;1.23;;
6862;SDS011;3470;48.738;9.616;2022-09-09T22:22:23;2.27;;;1.20;;
6862;SDS011;3470;48.738;9.616;2022-09-09T22:24:49;2.33;;;1.30;;
6862;SDS011;3470;48.738;9.616;2022-09-09T22:27:15;2.90;;;1.40;;
6862;SDS011;3470;48.738;9.616;2022-09-09T22:29:41;4.23;;;1.50;;
6862;SDS011;3470;48.738;9.616;2022-09-09T22:32:07;2.90;;;1.27;;
6862;SDS011;3470;48.738;9.616;2022-09-09T22:34:34;2.37;;;1.27;;
6862;SDS011;3470;48.738;9.616;2022-09-09T22:37:00;2.97;;;1.10;;
6862;SDS011;3470;48.738;9.616;2022-09-09T22:39:27;1.77;;;1.10;;
6862;SDS011;3470;48.738;9.616;2022-09-09T22:41:53;1.70;;;1.43;;
6862;SDS011;3470;48.738;9.616;2022-09-09T22:44:19;3.50;;;1.33;;
6862;SDS011;3470;48.738;9.616;2022-09-09T22:46:47;3.57;;;1.40;;
6862;SDS011;3470;48.738;9.616;2022-09-09T22:49:13;4.67;;;1.50;;
6862;SDS011;3470;48.738;9.616;2022-09-09T22:51:39;2.77;;;1.37;;
6862;SDS011;3470;48.738;9.616;2022-09-09T22:54:05;2.43;;;1.10;;
6862;SDS011;3470;48.738;9.616;2022-09-09T22:56:31;3.33;;;1.20;;
6862;SDS011;3470;48.738;9.616;2022-09-09T22:58:58;4.40;;;1.47;;
6862;SDS011;3470;48.738;9.616;2022-09-09T23:01:25;3.73;;;1.50;;
6862;SDS011;3470;48.738;9.616;2022-09-09T23:03:51;3.00;;;1.57;;
6862;SDS011;3470;48.738;9.616;2022-09-09T23:06:22;2.33;;;1.13;;
6862;SDS011;3470;48.738;9.616;2022-09-09T23:08:49;5.63;;;1.40;;
6862;SDS011;3470;48.738;9.616;2022-09-09T23:11:18;3.43;;;1.33;;
6862;SDS011;3470;48.738;9.616;2022-09-09T23:13:48;2.40;;;1.23;;
6862;SDS011;3470;48.738;9.616;2022-09-09T23:16:21;3.43;;;1.20;;
6862;SDS011;3470;48.738;9.616;2022-09-09T23:18:48;2.33;;;1.10;;
6862;SDS011;3470;48.738;9.616;2022-09-09T23:21:16;3.17;;;1.53;;
6862;SDS011;3470;48.738;9.616;2022-09-09T23:23:43;3.77;;;1.80;;
6862;SDS011;3470;48.738;9.616;2022-09-09T23:26:10;2.10;;;1.30;;
6862;SDS011;3470;48.738;9.616;2022-09-09T23:28:37;5.93;;;1.50;;
6862;SDS011;3470;48.738;9.616;2022-09-09T23:31:08;2.13;;;1.10;;
6862;SDS011;3470;48.738;9.616;2022-09-09T23:33:39;2.13;;;1.20;;
6862;SDS011;3470;48.738;9.616;2022-09-09T23:36:07;3.30;;;1.30;;
6862;SDS011;3470;48.738;9.616;2022-09-09T23:38:35;4.23;;;1.43;;
6862;SDS011;3470;48.738;9.616;2022-09-09T23:41:03;1.90;;;1.40;;
6862;SDS011;3470;48.738;9.616;2022-09-09T23:43:30;4.93;;;1.53;;
6862;SDS011;3470;48.738;9.616;2022-09-09T23:45:59;2.07;;;1.30;;
6862;SDS011;3470;48.738;9.616;2022-09-09T23:48:25;2.90;;;1.70;;
6862;SDS011;3470;48.738;9.616;2022-09-09T23:50:52;1.87;;;1.50;;
6862;SDS011;3470;48.738;9.616;2022-09-09T23:53:18;2.07;;;1.37;;
6862;SDS011;3470;48.738;9.616;2022-09-09T23:55:44;2.10;;;1.20;;
6862;SDS011;3470;48.738;9.616;2022-09-09T23:58:10;3.97;;;1.60;;
